Time;durP1;ratioP1;P1;durP2;ratioP2;P2;SDS_P1;SDS_P2;PMS_P1;PMS_P2;Temp;Humidity;BMP_temperature;BMP_pressure;BME280_temperature;BME280_humidity;BME280_pressure;Samples;Min_cycle;Max_cycle;Signal;HPM_P1;HPM_P2
2023/01/15 01:27:43;;;;;;;5.00;2.72;;;;;;;4.38;74.58;101669.28;5028229;28;20152;-91
2023/01/15 01:30:11;;;;;;;6.03;2.88;;;;;;;4.14;74.28;101623.72;5009916;28;20109;-91
2023/01/15 02:02:41;;;;;;;3.42;1.80;;;;;;;3.30;78.67;101674.91;5040168;23;20117;-91
2023/01/15 02:36:37;;;;;;;3.87;2.20;;;;;;;2.90;80.15;101634.69;4989221;26;20038;-92
2023/01/15 02:39:21;;;;;;;3.55;1.92;;;;;;;2.98;79.55;101644.03;4997753;28;20050;-92
2023/01/15 02:42:10;;;;;;;4.65;2.15;;;;;;;2.89;79.99;101642.72;5283283;23;20073;-90
2023/01/15 02:45:25;;;;;;;4.30;1.63;;;;;;;2.72;80.10;101636.56;5003216;28;20082;-92
2023/01/15 02:48:20;;;;;;;4.85;1.85;;;;;;;2.78;79.96;101645.13;5022651;28;20038;-92
2023/01/15 02:51:55;;;;;;;3.55;1.60;;;;;;;2.80;79.64;101645.91;5013779;28;20064;-90
2023/01/15 07:51:31;;;;;;;12.45;4.35;;;;;;;6.55;66.41;101705.47;5021724;28;20337;-86
2023/01/15 07:57:42;;;;;;;6.68;3.30;;;;;;;6.43;64.88;101669.81;5523439;22;20350;31
2023/01/15 08:03:05;;;;;;;7.47;3.75;;;;;;;6.62;65.17;101701.41;2334629;23;20246;-87
2023/01/15 08:05:37;;;;;;;10.55;4.10;;;;;;;6.64;65.02;101687.94;4993179;28;20039;-87
2023/01/15 08:18:45;;;;;;;6.60;3.78;;;;;;;7.39;63.07;101693.97;3348491;22;20102;-84
2023/01/15 08:21:18;;;;;;;5.63;3.40;;;;;;;7.73;62.11;101710.16;4977784;28;20062;-87
2023/01/15 08:24:12;;;;;;;9.93;3.58;;;;;;;7.79;61.49;101685.59;5059992;23;20038;-85
2023/01/15 08:27:04;;;;;;;9.70;4.10;;;;;;;7.89;60.90;101687.56;5005914;28;20069;-87
2023/01/15 08:29:34;;;;;;;6.80;4.05;;;;;;;8.01;60.21;101689.31;5012449;28;20038;-87
2023/01/15 08:32:00;;;;;;;10.48;4.60;;;;;;;8.25;59.59;101699.91;4989350;28;20144;-87
2023/01/15 08:34:28;;;;;;;12.05;4.30;;;;;;;8.17;59.47;101689.81;4995173;28;20049;-90
2023/01/15 08:36:58;;;;;;;13.30;5.00;;;;;;;7.99;60.35;101677.84;5009783;28;20035;-86
2023/01/15 08:39:27;;;;;;;10.20;4.40;;;;;;;8.06;60.18;101689.78;4990639;28;20569;-87
2023/01/15 08:41:55;;;;;;;11.50;4.70;;;;;;;8.18;60.25;101677.28;4983641;28;20039;-86
2023/01/15 08:44:23;;;;;;;10.82;4.90;;;;;;;8.25;59.38;101686.53;4973346;28;20046;-87
2023/01/15 08:46:49;;;;;;;9.05;4.82;;;;;;;8.39;59.29;101685.44;5003166;28;20048;-85
2023/01/15 08:49:15;;;;;;;9.38;5.05;;;;;;;8.50;58.97;101684.59;4955267;28;20042;-85
2023/01/15 08:51:41;;;;;;;14.27;5.75;;;;;;;8.48;58.87;101679.38;4955198;28;20448;-85
2023/01/15 08:54:07;;;;;;;11.70;5.53;;;;;;;8.37;59.24;101690.91;4984635;28;20042;-84
2023/01/15 08:56:33;;;;;;;9.48;4.97;;;;;;;8.65;58.31;101686.91;4990389;28;20042;-83
2023/01/15 08:59:00;;;;;;;10.18;5.50;;;;;;;8.59;58.47;101697.25;4954560;28;20038;-84
2023/01/15 09:01:26;;;;;;;11.48;5.80;;;;;;;8.50;58.76;101682.78;4953739;28;20170;-83
2023/01/15 09:03:57;;;;;;;13.10;6.72;;;;;;;8.60;58.94;101689.13;4998599;28;20038;-84
2023/01/15 09:06:24;;;;;;;10.20;5.93;;;;;;;8.77;58.15;101678.84;4970241;28;20038;-82
2023/01/15 09:08:50;;;;;;;11.45;6.40;;;;;;;8.53;58.24;101655.72;4980658;28;20502;-81
2023/01/15 09:11:18;;;;;;;14.02;6.32;;;;;;;8.80;58.05;101675.91;4970869;28;20035;-84
2023/01/15 09:13:47;;;;;;;14.25;6.57;;;;;;;8.74;58.55;101663.03;4974037;28;20070;-87
2023/01/15 09:16:16;;;;;;;17.00;7.47;;;;;;;8.79;58.32;101668.88;4983218;28;20055;-87
2023/01/15 09:18:42;;;;;;;17.13;6.05;;;;;;;8.71;57.71;101663.25;4987023;28;20038;-83
2023/01/15 09:21:09;;;;;;;7.68;4.72;;;;;;;8.46;58.57;101675.97;4973556;28;20073;-86
2023/01/15 09:23:35;;;;;;;7.70;4.70;;;;;;;8.29;58.86;101663.88;4988375;28;20046;-81
2023/01/15 09:26:07;;;;;;;8.43;4.93;;;;;;;8.10;59.47;101659.13;4975328;28;20053;-83
2023/01/15 09:28:33;;;;;;;9.75;4.72;;;;;;;8.17;59.56;101657.66;4990930;28;20200;-82
2023/01/15 09:31:02;;;;;;;7.80;4.53;;;;;;;8.35;58.84;101657.16;4991733;28;20128;-84
2023/01/15 09:33:30;;;;;;;9.60;4.90;;;;;;;8.11;59.62;101647.44;4987952;28;20038;-88
2023/01/15 09:35:57;;;;;;;10.70;5.40;;;;;;;7.89;60.16;101639.34;4987548;28;20042;-87
2023/01/15 09:38:24;;;;;;;11.57;5.07;;;;;;;8.08;59.39;101641.44;4993018;28;20069;-85
2023/01/15 09:41:05;;;;;;;10.43;5.75;;;;;;;8.16;59.42;101639.03;4997688;28;20065;-86
2023/01/15 09:44:11;;;;;;;8.35;5.38;;;;;;;8.33;59.06;101659.13;4974928;28;20034;-84
2023/01/15 09:47:07;;;;;;;11.60;6.07;;;;;;;8.24;59.63;101645.50;4977351;28;20121;-83
2023/01/15 09:49:55;;;;;;;10.00;5.95;;;;;;;8.16;60.00;101637.19;5001146;28;20038;-84
2023/01/15 09:53:03;;;;;;;10.57;5.47;;;;;;;8.04;60.05;101646.19;4980996;28;20408;-83
2023/01/15 09:55:31;;;;;;;10.10;5.50;;;;;;;7.99;60.48;101643.03;4991280;28;20398;-86
2023/01/15 09:57:59;;;;;;;11.15;5.68;;;;;;;8.18;60.06;101632.56;4984340;28;20042;-83
2023/01/15 10:00:26;;;;;;;10.05;6.00;;;;;;;8.22;60.19;101630.53;4990806;28;20061;-83
2023/01/15 10:03:11;;;;;;;12.55;6.43;;;;;;;8.28;61.15;101623.81;4978729;28;20048;-78
2023/01/15 10:05:52;;;;;;;10.13;4.95;;;;;;;7.89;61.12;101623.28;4998896;28;20038;-87
2023/01/15 10:08:29;;;;;;;9.68;5.03;;;;;;;7.97;61.56;101618.22;4984747;28;20038;-87
2023/01/15 10:11:05;;;;;;;10.55;4.65;;;;;;;8.26;60.64;101621.25;4982784;28;20480;-88
2023/01/15 10:13:39;;;;;;;7.85;5.07;;;;;;;7.86;61.16;101613.69;4989367;28;20430;-84
2023/01/15 10:16:06;;;;;;;7.13;4.57;;;;;;;7.79;61.93;101612.44;4973596;28;20047;-84
2023/01/15 10:18:33;;;;;;;8.10;4.35;;;;;;;7.91;61.37;101597.25;4984816;28;20039;-85
2023/01/15 10:21:28;;;;;;;10.02;5.30;;;;;;;8.05;61.51;101594.34;4975295;28;20051;-82
2023/01/15 10:24:16;;;;;;;8.27;4.90;;;;;;;8.38;59.91;101600.66;5001215;28;20064;-85
2023/01/15 10:26:43;;;;;;;11.00;5.40;;;;;;;8.45;59.19;101593.84;5012915;28;20096;-84
2023/01/15 10:29:30;;;;;;;11.07;6.03;;;;;;;8.65;59.13;101590.41;5015807;28;20076;-89
2023/01/15 10:32:17;;;;;;;11.07;5.38;;;;;;;8.42;59.49;101589.59;4996942;28;20046;-85
2023/01/15 10:35:20;;;;;;;12.02;6.00;;;;;;;8.28;59.93;101586.28;5020846;28;20024;-89
2023/01/15 10:38:20;;;;;;;10.48;5.43;;;;;;;8.54;59.78;101581.53;5020151;28;20065;-88
2023/01/15 10:41:42;;;;;;;8.82;5.68;;;;;;;8.46;59.84;101568.78;4997351;28;20034;-86
2023/01/15 10:44:14;;;;;;;9.75;6.00;;;;;;;8.54;59.24;101577.00;5000934;28;20199;-85
2023/01/15 10:46:46;;;;;;;9.55;6.13;;;;;;;8.47;58.88;101540.13;5006928;28;20042;-83
2023/01/15 10:49:13;;;;;;;11.80;6.82;;;;;;;8.67;58.69;101550.06;5009392;28;20117;-87
2023/01/15 10:51:52;;;;;;;12.25;7.45;;;;;;;8.80;58.31;101553.44;4989910;28;20034;-82
2023/01/15 10:54:49;;;;;;;14.65;7.15;;;;;;;9.01;58.03;101553.47;4990465;28;20339;-80
2023/01/15 10:57:43;;;;;;;13.85;6.75;;;;;;;9.15;58.10;101549.59;5003734;28;20050;-82
2023/01/15 11:00:13;;;;;;;11.13;6.55;;;;;;;9.09;57.85;101537.56;4991707;28;20035;-85
2023/01/15 11:02:46;;;;;;;14.52;6.50;;;;;;;8.88;58.40;101536.72;5015443;28;20034;-84
2023/01/15 11:05:34;;;;;;;10.95;6.00;;;;;;;8.85;58.27;101521.72;4988044;28;20090;-87
2023/01/15 11:08:01;;;;;;;9.95;5.95;;;;;;;8.81;58.84;101541.72;4989028;28;20459;-81
2023/01/15 11:10:29;;;;;;;10.73;5.88;;;;;;;8.65;59.43;101546.66;5017000;28;20042;-85
2023/01/15 11:21:40;;;;;;;11.68;6.25;;;;;;;8.40;60.74;101537.94;4996781;28;20497;-83
2023/01/15 11:24:15;;;;;;;12.27;6.07;;;;;;;8.15;60.94;101514.13;5012246;28;20045;-82
2023/01/15 11:26:40;;;;;;;17.48;6.50;;;;;;;8.04;61.60;101542.59;4993640;28;20068;-80
2023/01/15 11:29:38;;;;;;;11.38;6.70;;;;;;;8.01;62.23;101539.34;4960510;28;20487;-85
2023/01/15 11:32:23;;;;;;;11.82;5.85;;;;;;;8.12;61.80;101528.59;4981508;28;20141;-79
2023/01/15 11:34:52;;;;;;;;;;;;;;;7.96;62.33;101531.66;4999003;28;20042;-79
2023/01/15 11:37:21;;;;;;;10.55;6.47;;;;;;;7.81;63.02;101520.34;4980430;28;20447;-80
2023/01/15 11:39:59;;;;;;;9.60;6.18;;;;;;;7.46;63.48;101503.53;4993934;28;20091;-88
2023/01/15 11:51:27;;;;;;;15.77;8.57;;;;;;;7.42;64.52;101508.25;4989370;28;20096;-83
2023/01/15 11:53:58;;;;;;;19.00;7.88;;;;;;;7.19;65.42;101512.75;4988750;28;20041;-81
2023/01/15 11:56:25;;;;;;;15.25;8.50;;;;;;;7.03;65.49;101512.22;4989462;28;20030;-83
2023/01/15 11:58:56;;;;;;;13.80;8.15;;;;;;;7.08;65.61;101510.88;4972406;28;20055;-84
2023/01/15 12:01:27;;;;;;;13.38;7.55;;;;;;;7.11;65.95;101515.16;4977772;28;20387;-85
2023/01/15 12:03:54;;;;;;;10.63;6.45;;;;;;;7.15;66.20;101511.28;4998435;28;20030;-88
2023/01/15 12:06:23;;;;;;;9.32;6.13;;;;;;;6.70;67.53;101519.16;4989015;28;20549;-81
2023/01/15 12:08:56;;;;;;;13.13;6.15;;;;;;;6.65;68.20;101513.28;4989325;28;20042;-83
2023/01/15 12:11:36;;;;;;;12.05;6.60;;;;;;;6.66;68.18;101510.50;5017343;28;20033;-83
2023/01/15 12:14:23;;;;;;;11.75;6.50;;;;;;;6.71;68.10;101502.97;4992835;28;20544;-85
2023/01/15 12:17:00;;;;;;;11.70;6.82;;;;;;;6.89;67.50;101503.41;4968653;28;20041;-85
2023/01/15 12:20:05;;;;;;;10.20;6.18;;;;;;;6.89;67.43;101498.06;5017061;28;20029;-81
2023/01/15 12:22:44;;;;;;;11.48;6.95;;;;;;;6.66;67.81;101493.63;5014384;28;20040;-86
2023/01/15 12:25:24;;;;;;;13.65;6.57;;;;;;;6.49;68.37;101465.50;5005755;28;20057;-83
2023/01/15 12:28:13;;;;;;;12.07;6.75;;;;;;;6.67;68.29;101504.19;4982471;28;20140;-84
2023/01/15 12:31:15;;;;;;;13.02;7.25;;;;;;;6.64;69.19;101507.09;5031588;28;20065;-83
2023/01/15 12:36:41;;;;;;;10.33;6.93;;;;;;;6.61;69.32;101482.44;5037465;28;19966;-87
2023/01/15 12:39:21;;;;;;;10.27;6.30;;;;;;;6.63;68.83;101493.84;5020324;28;20295;-85
2023/01/15 12:45:07;;;;;;;11.30;6.85;;;;;;;6.69;68.69;101501.41;5023592;28;20060;-87
2023/01/15 13:08:44;;;;;;;12.93;6.22;;;;;;;6.35;69.69;101474.53;5013702;28;20305;-91
2023/01/15 13:11:14;;;;;;;10.53;5.80;;;;;;;6.35;69.77;101458.50;4985649;28;20228;-88
2023/01/15 13:14:03;;;;;;;11.00;6.15;;;;;;;6.48;69.97;101469.97;4973831;28;20219;-88
2023/01/15 13:16:50;;;;;;;10.75;6.18;;;;;;;6.42;70.60;101477.59;5003354;28;20089;-89
2023/01/15 13:23:25;;;;;;;10.27;5.07;;;;;;;6.41;70.51;101475.88;5010875;28;20486;-84
2023/01/15 13:26:00;;;;;;;13.95;6.18;;;;;;;6.27;70.88;101476.91;4935747;29;20052;-91
2023/01/15 13:28:51;;;;;;;9.35;5.68;;;;;;;6.02;71.58;101476.03;4989276;28;20052;-84
2023/01/15 13:31:50;;;;;;;9.63;5.70;;;;;;;5.94;72.03;101475.72;5004472;28;20039;-84
2023/01/15 13:34:30;;;;;;;9.32;5.15;;;;;;;5.91;72.30;101478.59;4995987;28;20046;-87
2023/01/15 13:37:43;;;;;;;10.80;6.38;;;;;;;5.90;72.56;101474.25;4976557;28;20083;-89
2023/01/15 13:41:01;;;;;;;11.45;6.30;;;;;;;5.93;72.74;101463.34;5013546;28;20025;-93
2023/01/15 13:44:00;;;;;;;13.43;6.70;;;;;;;5.69;72.45;101432.13;4999249;28;20042;-84
2023/01/15 13:46:35;;;;;;;13.13;6.38;;;;;;;5.78;72.64;101453.75;4983818;28;20054;-86
2023/01/15 13:56:47;;;;;;;16.23;7.83;;;;;;;5.96;72.14;101457.78;5125781;23;20426;-85
2023/01/15 13:59:42;;;;;;;14.82;7.47;;;;;;;5.99;72.45;101462.91;4970131;28;20287;-86
2023/01/15 14:02:53;;;;;;;10.07;6.60;;;;;;;6.06;72.12;101457.97;5020231;28;20053;-90
2023/01/15 14:09:02;;;;;;;11.10;6.45;;;;;;;5.94;72.32;101457.06;5018289;28;20037;-85
2023/01/15 14:12:03;;;;;;;20.02;9.10;;;;;;;5.93;72.72;101460.66;5030900;28;20105;-86
2023/01/15 14:15:32;;;;;;;19.10;9.35;;;;;;;5.93;72.72;101455.31;4999108;28;20030;-85
2023/01/15 14:18:45;;;;;;;20.00;9.90;;;;;;;5.84;72.73;101458.66;5031565;28;20052;-85
2023/01/15 14:21:54;;;;;;;11.77;6.25;;;;;;;5.71;73.01;101451.53;5034542;28;20038;-90
2023/01/15 15:49:38;;;;;;;13.10;7.07;;;;;;;5.50;75.64;101413.03;4984792;28;20165;-84
2023/01/15 15:52:18;;;;;;;14.13;7.80;;;;;;;5.22;76.36;101404.38;4982391;28;20030;-86
2023/01/15 15:54:56;;;;;;;10.48;6.18;;;;;;;5.32;76.24;101409.03;4962816;28;20129;-86
2023/01/15 15:57:47;;;;;;;14.70;6.70;;;;;;;5.44;76.46;101424.16;4912941;28;20556;-85
2023/01/15 16:00:46;;;;;;;10.85;6.38;;;;;;;5.41;76.36;101419.06;4978043;28;20041;-88
2023/01/15 16:03:56;;;;;;;12.82;6.97;;;;;;;5.20;77.01;101434.75;4921275;29;20126;-86
2023/01/15 16:06:24;;;;;;;12.00;6.28;;;;;;;5.00;77.45;101389.00;4940423;29;20078;-88
2023/01/15 16:09:03;;;;;;;13.80;7.05;;;;;;;5.17;77.33;101422.47;4934603;29;20073;-86
2023/01/15 16:11:32;;;;;;;13.20;6.80;;;;;;;4.94;77.63;101384.13;4922443;29;20561;-88
2023/01/15 16:14:25;;;;;;;10.55;6.53;;;;;;;5.28;77.34;101414.56;4946853;29;20491;-88
2023/01/15 16:16:53;;;;;;;17.33;7.35;;;;;;;5.24;77.21;101402.44;4944409;29;20032;-84
2023/01/15 16:19:24;;;;;;;14.32;7.20;;;;;;;5.25;77.31;101388.13;4945414;28;20058;-85
2023/01/15 16:21:49;;;;;;;13.68;6.97;;;;;;;5.26;77.04;101400.50;4923774;29;20461;-85
2023/01/15 16:24:54;;;;;;;11.82;6.93;;;;;;;5.38;77.00;101409.44;4914886;29;20039;-94
2023/01/15 16:27:22;;;;;;;11.82;6.68;;;;;;;5.13;77.41;101373.03;4945992;28;20057;-90
2023/01/15 16:29:54;;;;;;;10.90;6.18;;;;;;;5.40;77.04;101401.34;4930900;29;20040;-90
2023/01/15 16:36:03;;;;;;;19.88;7.10;;;;;;;5.41;76.75;101397.72;4949636;29;20131;-90
2023/01/15 16:38:33;;;;;;;14.45;7.63;;;;;;;5.10;77.41;101399.03;4946700;28;20360;-84
2023/01/15 16:41:41;;;;;;;20.73;8.50;;;;;;;5.41;77.73;101424.41;4964720;28;20050;-85
2023/01/15 16:44:07;;;;;;;18.15;8.20;;;;;;;5.49;77.00;101411.34;4964693;28;20027;-84
2023/01/15 16:47:14;;;;;;;16.73;7.93;;;;;;;5.56;76.86;101423.28;4957689;28;20088;-82
2023/01/15 16:49:44;;;;;;;15.32;7.68;;;;;;;5.32;76.82;101377.06;5026176;28;20038;-88
2023/01/15 16:52:47;;;;;;;14.55;8.68;;;;;;;5.56;77.12;101414.44;4989325;28;20046;-91
2023/01/15 16:55:39;;;;;;;19.30;11.85;;;;;;;5.64;76.71;101409.38;4986398;28;20023;-91
2023/01/15 16:58:11;;;;;;;13.52;7.13;;;;;;;5.67;76.24;101410.03;5016408;28;20034;-90
2023/01/15 17:00:36;;;;;;;15.45;8.50;;;;;;;5.63;76.34;101408.53;5010979;28;20536;-88
2023/01/15 17:03:17;;;;;;;13.50;8.00;;;;;;;5.50;76.95;101407.72;4969589;28;20035;-89
2023/01/15 17:06:24;;;;;;;15.73;7.95;;;;;;;5.55;76.91;101421.59;4965984;28;20038;-90
2023/01/15 17:12:33;;;;;;;15.82;9.43;;;;;;;5.75;76.68;101408.63;4988622;28;20045;-87
2023/01/15 17:15:26;;;;;;;16.33;8.35;;;;;;;5.71;76.35;101414.19;4965309;28;20049;-89
2023/01/15 17:17:53;;;;;;;14.85;7.82;;;;;;;5.75;76.58;101411.28;4977685;28;20053;-88
2023/01/15 17:20:19;;;;;;;14.55;8.25;;;;;;;5.71;76.95;101416.84;4957624;28;20033;-86
2023/01/15 17:22:50;;;;;;;15.00;8.60;;;;;;;5.55;77.41;101399.38;4965123;28;20054;-86
2023/01/15 17:25:36;;;;;;;12.65;7.32;;;;;;;5.54;77.68;101403.88;4978599;28;20041;-89
2023/01/15 17:28:11;;;;;;;11.57;6.63;;;;;;;5.63;77.71;101399.69;4990357;28;20112;-86
2023/01/15 17:30:40;;;;;;;13.30;6.25;;;;;;;5.52;77.93;101384.44;4985797;28;20136;-85
2023/01/15 17:33:10;;;;;;;15.82;7.82;;;;;;;5.67;77.83;101404.69;4977106;28;20102;-86
2023/01/15 17:35:47;;;;;;;12.45;7.22;;;;;;;5.47;77.99;101357.25;5010933;28;20031;-85
2023/01/15 17:38:12;;;;;;;12.68;7.47;;;;;;;5.54;77.82;101374.53;4988394;28;20052;-83
2023/01/15 18:22:54;;;;;;;12.65;6.75;;;;;;;5.92;78.13;101402.88;4988353;28;20430;-86
2023/01/15 18:25:23;;;;;;;11.25;6.90;;;;;;;5.89;78.59;101392.44;4962365;28;20046;-86
2023/01/15 18:27:49;;;;;;;13.45;7.88;;;;;;;5.82;78.52;101386.72;4958910;28;20034;-86
2023/01/15 18:30:26;;;;;;;13.27;7.80;;;;;;;5.79;78.76;101386.94;4935557;28;20061;-88
2023/01/15 18:33:19;;;;;;;13.65;7.65;;;;;;;5.64;79.18;101369.38;4968154;28;20081;-91
2023/01/15 18:36:10;;;;;;;13.00;8.07;;;;;;;5.69;79.40;101365.41;4948788;29;20099;-89
2023/01/15 18:38:46;;;;;;;21.42;11.40;;;;;;;5.91;79.08;101390.53;4958055;28;20415;-85
2023/01/15 18:47:23;;;;;;;10.95;6.85;;;;;;;5.93;79.19;101383.25;4977691;28;20021;-86
2023/01/15 18:50:30;;;;;;;12.38;7.43;;;;;;;6.00;79.15;101389.88;4980030;28;20050;-87
2023/01/15 18:52:56;;;;;;;11.57;7.00;;;;;;;5.84;79.18;101351.91;4953149;28;20041;-86
2023/01/15 18:55:37;;;;;;;12.68;7.75;;;;;;;6.07;79.47;101391.13;4940294;28;20066;-87
2023/01/15 18:58:19;;;;;;;12.75;7.80;;;;;;;6.02;79.57;101379.94;4945892;28;20042;-86
2023/01/15 19:00:52;;;;;;;10.98;6.63;;;;;;;5.81;79.70;101352.16;4945237;28;20043;-88
2023/01/15 19:03:22;;;;;;;11.52;7.10;;;;;;;6.04;79.77;101374.47;4957802;28;20043;-87
2023/01/15 19:06:12;;;;;;;12.35;7.50;;;;;;;6.03;79.71;101373.63;4925044;28;20046;-85
2023/01/15 19:08:39;;;;;;;10.90;6.95;;;;;;;5.83;80.05;101348.41;4960200;28;20035;-89
2023/01/15 19:11:20;;;;;;;11.30;6.35;;;;;;;5.90;80.23;101359.47;4927953;29;20044;-90
2023/01/15 19:20:13;;;;;;;24.73;11.85;;;;;;;5.79;81.89;101376.25;4956160;29;20431;-85
2023/01/15 19:26:13;;;;;;;14.02;7.70;;;;;;;5.80;81.99;101369.09;4993340;28;20152;-84
2023/01/15 19:28:42;;;;;;;15.63;8.00;;;;;;;5.87;81.81;101375.69;4976776;28;20481;-86
2023/01/15 19:33:56;;;;;;;17.15;9.70;;;;;;;5.85;81.89;101357.16;4991241;28;20041;-84
2023/01/15 19:36:23;;;;;;;17.38;9.65;;;;;;;5.67;81.73;101324.66;4988825;28;20133;-86
2023/01/15 19:38:50;;;;;;;15.27;8.45;;;;;;;5.69;81.66;101316.56;4992353;28;20109;-87
2023/01/15 19:50:18;;;;;;;14.43;7.78;;;;;;;5.71;81.59;101314.59;4956354;28;20038;-88
2023/01/15 19:53:08;;;;;;;14.20;7.97;;;;;;;5.82;81.59;101316.47;4997153;28;20113;-90
2023/01/15 19:55:37;;;;;;;18.45;8.60;;;;;;;5.95;81.15;101317.31;4989878;28;20042;-88
2023/01/15 19:58:05;;;;;;;18.80;9.63;;;;;;;5.87;80.84;101314.31;4963230;28;20062;-85
2023/01/15 20:00:37;;;;;;;20.60;9.88;;;;;;;5.93;80.56;101308.53;4996046;28;20133;-84
2023/01/15 20:03:03;;;;;;;35.60;16.40;;;;;;;6.17;80.44;101339.72;4994817;28;20123;-85
2023/01/15 20:05:30;;;;;;;25.48;12.02;;;;;;;6.34;79.19;101340.16;4996117;28;20058;-86
2023/01/15 20:07:58;;;;;;;25.20;14.80;;;;;;;6.23;78.94;101332.09;4988381;28;20041;-85
2023/01/15 20:10:26;;;;;;;27.45;15.57;;;;;;;6.32;78.68;101333.19;4994484;28;20059;-86
2023/01/15 20:15:50;;;;;;;29.33;16.35;;;;;;;6.32;78.26;101326.06;4976602;28;20060;-88
2023/01/15 20:18:28;;;;;;;29.92;17.35;;;;;;;6.48;78.28;101339.06;4970605;28;20073;-86
2023/01/15 20:50:08;;;;;;;19.92;9.95;;;;;;;6.72;76.15;101316.78;5013792;28;20033;-86
2023/01/15 20:55:55;;;;;;;18.88;10.13;;;;;;;6.77;75.73;101325.28;5013102;28;20489;-83
2023/01/15 21:01:44;;;;;;;18.73;10.25;;;;;;;6.65;76.29;101320.88;5024496;28;20049;-87
2023/01/15 21:07:31;;;;;;;20.40;10.18;;;;;;;6.66;76.12;101319.94;5014322;28;20092;-83
2023/01/15 21:09:57;;;;;;;17.02;10.00;;;;;;;6.61;76.83;101306.09;4976479;28;20041;-83
2023/01/15 21:13:04;;;;;;;20.75;11.75;;;;;;;6.74;76.71;101322.84;4993582;28;20038;-82
2023/01/15 21:16:17;;;;;;;21.80;12.02;;;;;;;6.60;77.05;101317.72;5008263;28;20429;-82
2023/01/15 21:18:55;;;;;;;21.30;12.38;;;;;;;6.50;77.58;101318.44;4995648;28;20125;-82
2023/01/15 21:21:23;;;;;;;22.92;12.75;;;;;;;6.61;77.36;101316.78;4996184;28;20087;-80
2023/01/15 21:24:37;;;;;;;22.52;12.75;;;;;;;6.66;77.29;101309.25;4989541;28;20089;-84
2023/01/15 21:27:05;;;;;;;25.00;12.85;;;;;;;6.66;77.40;101296.72;5013150;28;20042;-84
2023/01/15 21:29:32;;;;;;;27.02;13.82;;;;;;;6.68;77.43;101301.97;5004293;28;20037;-85
2023/01/15 21:31:58;;;;;;;25.65;13.77;;;;;;;6.68;77.64;101305.47;4976980;28;20034;-84
2023/01/15 21:34:26;;;;;;;26.10;11.63;;;;;;;6.64;77.86;101282.63;4989278;28;20042;-83
2023/01/15 21:36:53;;;;;;;21.70;11.27;;;;;;;6.82;77.70;101298.22;5004031;28;20030;-86
2023/01/15 21:39:22;;;;;;;25.80;12.70;;;;;;;6.84;77.28;101297.09;5000817;28;20042;-83
2023/01/15 21:44:34;;;;;;;23.73;11.68;;;;;;;6.82;76.90;101266.97;5010918;28;20048;-81
2023/01/15 21:47:06;;;;;;;23.98;12.93;;;;;;;6.96;76.78;101285.44;4996567;28;20034;-82
2023/01/15 21:49:32;;;;;;;25.52;12.30;;;;;;;6.91;76.75;101271.59;4992117;28;20042;-83
2023/01/15 21:52:04;;;;;;;29.55;12.32;;;;;;;7.03;76.59;101272.44;4966274;28;20062;-81
2023/01/15 21:54:30;;;;;;;17.83;9.38;;;;;;;6.92;76.94;101256.41;5004332;28;20087;-81
2023/01/15 21:56:57;;;;;;;19.52;10.20;;;;;;;6.87;76.95;101254.09;4995922;28;20501;-82
2023/01/15 21:59:23;;;;;;;18.77;10.93;;;;;;;6.85;77.43;101253.34;4997149;28;20034;-85
2023/01/15 22:01:51;;;;;;;17.77;9.40;;;;;;;6.99;77.07;101254.94;4979559;28;20344;-83
2023/01/15 22:04:19;;;;;;;13.82;8.15;;;;;;;6.72;77.54;101263.34;5013821;28;20033;-82
2023/01/15 22:06:46;;;;;;;16.35;9.60;;;;;;;6.50;78.64;101257.00;5013210;28;20030;-84
2023/01/15 22:09:12;;;;;;;16.95;8.90;;;;;;;6.61;78.44;101255.31;4995408;28;20038;-86
2023/01/15 22:11:42;;;;;;;17.27;8.73;;;;;;;6.47;78.80;101246.56;4995518;28;20041;-83
2023/01/15 22:14:23;;;;;;;12.32;6.75;;;;;;;6.47;79.04;101235.88;4979799;28;20034;-81
2023/01/15 22:16:48;;;;;;;10.48;5.93;;;;;;;6.45;78.73;101235.13;4977523;28;20124;-83
2023/01/15 22:19:19;;;;;;;17.33;7.00;;;;;;;6.69;78.63;101245.69;4979341;28;20077;-83
2023/01/15 22:21:47;;;;;;;12.20;6.75;;;;;;;6.59;78.52;101258.09;5009409;28;20274;-82
2023/01/15 22:24:13;;;;;;;11.18;6.35;;;;;;;6.73;78.47;101238.31;4978211;28;20176;-83
2023/01/15 22:26:42;;;;;;;11.25;5.80;;;;;;;6.82;77.91;101242.91;4995940;28;20042;-83
2023/01/15 22:29:10;;;;;;;9.15;5.90;;;;;;;6.83;77.85;101225.91;4994030;28;20478;-84
2023/01/15 22:31:39;;;;;;;10.48;5.82;;;;;;;6.99;77.66;101228.19;5012985;28;20092;-81
2023/01/15 22:34:04;;;;;;;13.98;6.40;;;;;;;7.07;77.04;101236.47;4994954;28;20459;-83
2023/01/15 22:36:30;;;;;;;12.10;5.93;;;;;;;6.99;76.93;101236.22;4975498;28;20035;-82
2023/01/15 22:38:56;;;;;;;10.13;5.60;;;;;;;7.04;76.76;101226.00;4990018;28;20692;-81
2023/01/15 22:44:07;;;;;;;10.15;6.35;;;;;;;7.10;76.69;101217.50;4977847;28;20061;-82
2023/01/15 22:46:34;;;;;;;17.77;6.65;;;;;;;7.15;76.19;101203.75;4962600;28;20483;-83
2023/01/15 22:49:02;;;;;;;9.45;5.70;;;;;;;7.23;75.62;101217.31;5007936;28;20034;-81
2023/01/15 22:51:28;;;;;;;13.63;6.57;;;;;;;7.15;75.75;101193.03;4994394;28;20462;-84
2023/01/15 22:53:54;;;;;;;12.98;6.68;;;;;;;7.21;75.80;101205.94;4994920;28;20065;-80
2023/01/15 22:56:19;;;;;;;13.52;6.85;;;;;;;7.20;75.75;101193.50;4975042;28;20546;-81
2023/01/15 22:58:45;;;;;;;11.52;6.20;;;;;;;7.28;75.65;101191.06;5009034;28;20046;-81
2023/01/15 23:01:10;;;;;;;11.10;6.03;;;;;;;7.25;75.73;101180.59;4995651;28;20470;-79
2023/01/15 23:03:36;;;;;;;9.57;5.70;;;;;;;7.29;75.42;101176.72;4994201;28;20026;-81
2023/01/15 23:06:08;;;;;;;12.13;6.05;;;;;;;7.12;75.78;101167.41;5010040;28;20425;-82
2023/01/15 23:08:34;;;;;;;9.32;5.70;;;;;;;7.15;76.43;101182.34;4996741;28;20057;-81
2023/01/15 23:11:00;;;;;;;10.18;5.45;;;;;;;7.03;76.43;101161.97;4980104;28;20147;-82
2023/01/15 23:13:30;;;;;;;;;;;;;;;7.02;76.98;101179.81;4999454;28;20033;-83
2023/01/15 23:15:58;;;;;;;11.60;5.40;;;;;;;7.01;77.35;101175.44;5009370;28;19909;-82
2023/01/15 23:18:24;;;;;;;9.82;5.53;;;;;;;6.94;77.51;101160.88;5017854;28;20065;-81
2023/01/15 23:20:49;;;;;;;10.50;5.30;;;;;;;6.94;77.60;101158.22;4977233;28;20042;-82
2023/01/15 23:23:16;;;;;;;7.20;4.60;;;;;;;6.92;77.77;101158.34;4978261;28;20045;-80
2023/01/15 23:25:42;;;;;;;7.57;3.90;;;;;;;6.86;78.01;101148.16;4964838;28;20305;-82
2023/01/15 23:28:09;;;;;;;6.65;3.22;;;;;;;6.83;78.63;101153.72;4993068;28;20035;-82
2023/01/15 23:30:34;;;;;;;4.75;2.97;;;;;;;6.81;79.46;101155.69;4959042;28;20073;-82
2023/01/15 23:33:12;;;;;;;6.20;3.53;;;;;;;6.75;79.94;101116.09;4974328;28;20050;-82
2023/01/15 23:35:37;;;;;;;6.55;3.40;;;;;;;6.90;80.73;101138.88;4974603;28;20070;-82
2023/01/15 23:38:03;;;;;;;4.85;3.08;;;;;;;6.68;81.72;101133.63;5010905;28;20369;-83
2023/01/15 23:40:30;;;;;;;5.18;3.17;;;;;;;6.65;81.94;101124.03;4993138;28;20046;-82
2023/01/15 23:48:24;;;;;;;5.13;3.25;;;;;;;6.70;82.94;101142.38;5010029;28;20040;-82
2023/01/15 23:50:49;;;;;;;5.72;3.30;;;;;;;6.81;82.74;101142.31;5025023;28;20064;-82
2023/01/15 23:53:16;;;;;;;6.30;3.75;;;;;;;6.64;83.11;101124.13;5001297;28;20379;-80
2023/01/15 23:55:42;;;;;;;8.63;3.85;;;;;;;6.84;82.70;101139.41;5004540;28;20482;-81
2023/01/15 23:58:07;;;;;;;8.45;3.97;;;;;;;6.76;82.23;101109.78;4993010;28;20069;-84
